sensor_id;sensor_type;location;lat;lon;timestamp;pressure;altitude;pressure_sealevel;temperature;humidity
77662;BME280;67292;52.136;5.424;2023-02-14T00:00:48;103718.03;;;3.38;89.83
77662;BME280;67292;52.136;5.424;2023-02-14T00:03:15;103718.84;;;3.35;89.70
77662;BME280;67292;52.136;5.424;2023-02-14T00:05:42;103717.81;;;3.32;89.92
77662;BME280;67292;52.136;5.424;2023-02-14T00:08:09;103716.84;;;3.29;89.92
77662;BME280;67292;52.136;5.424;2023-02-14T00:10:35;103715.75;;;3.24;90.04
77662;BME280;67292;52.136;5.424;2023-02-14T00:13:03;103711.25;;;3.22;89.89
77662;BME280;67292;52.136;5.424;2023-02-14T00:15:30;103704.94;;;3.18;89.93
77662;BME280;67292;52.136;5.424;2023-02-14T00:17:56;103702.25;;;3.17;90.31
77662;BME280;67292;52.136;5.424;2023-02-14T00:20:27;103710.16;;;3.17;90.23
77662;BME280;67292;52.136;5.424;2023-02-14T00:22:53;103708.25;;;3.13;90.37
77662;BME280;67292;52.136;5.424;2023-02-14T00:25:20;103702.84;;;3.10;90.07
77662;BME280;67292;52.136;5.424;2023-02-14T00:27:47;103710.53;;;3.05;89.65
77662;BME280;67292;52.136;5.424;2023-02-14T00:30:13;103707.81;;;3.04;89.81
77662;BME280;67292;52.136;5.424;2023-02-14T00:32:41;103706.81;;;3.00;90.37
77662;BME280;67292;52.136;5.424;2023-02-14T00:35:09;103708.59;;;3.01;89.91
77662;BME280;67292;52.136;5.424;2023-02-14T00:37:36;103707.72;;;3.01;89.71
77662;BME280;67292;52.136;5.424;2023-02-14T00:40:04;103705.00;;;2.99;90.34
77662;BME280;67292;52.136;5.424;2023-02-14T00:42:31;103703.06;;;2.95;90.25
77662;BME280;67292;52.136;5.424;2023-02-14T00:44:58;103704.72;;;2.93;90.13
77662;BME280;67292;52.136;5.424;2023-02-14T00:47:25;103705.44;;;2.89;90.14
77662;BME280;67292;52.136;5.424;2023-02-14T00:49:51;103702.66;;;2.86;90.43
77662;BME280;67292;52.136;5.424;2023-02-14T00:52:18;103709.59;;;2.84;90.39
77662;BME280;67292;52.136;5.424;2023-02-14T00:54:44;103705.88;;;2.79;90.39
77662;BME280;67292;52.136;5.424;2023-02-14T00:57:11;103702.25;;;2.77;90.03
77662;BME280;67292;52.136;5.424;2023-02-14T00:59:38;103698.53;;;2.72;89.88
77662;BME280;67292;52.136;5.424;2023-02-14T01:02:04;103704.75;;;2.74;89.93
77662;BME280;67292;52.136;5.424;2023-02-14T01:04:31;103696.78;;;2.72;89.74
77662;BME280;67292;52.136;5.424;2023-02-14T01:06:57;103688.84;;;2.71;90.36
77662;BME280;67292;52.136;5.424;2023-02-14T01:09:24;103689.72;;;2.71;89.83
77662;BME280;67292;52.136;5.424;2023-02-14T01:11:51;103694.09;;;2.71;90.09
77662;BME280;67292;52.136;5.424;2023-02-14T01:14:17;103688.72;;;2.68;90.66
77662;BME280;67292;52.136;5.424;2023-02-14T01:16:44;103688.50;;;2.63;90.37
77662;BME280;67292;52.136;5.424;2023-02-14T01:19:10;103688.44;;;2.62;90.38
77662;BME280;67292;52.136;5.424;2023-02-14T01:21:37;103685.63;;;2.57;91.10
77662;BME280;67292;52.136;5.424;2023-02-14T01:24:06;103676.69;;;2.53;90.55
77662;BME280;67292;52.136;5.424;2023-02-14T01:26:34;103681.03;;;2.53;90.63
77662;BME280;67292;52.136;5.424;2023-02-14T01:29:01;103683.53;;;2.50;91.17
77662;BME280;67292;52.136;5.424;2023-02-14T01:31:31;103683.47;;;2.48;90.46
77662;BME280;67292;52.136;5.424;2023-02-14T01:33:58;103683.25;;;2.44;90.62
77662;BME280;67292;52.136;5.424;2023-02-14T01:36:37;103682.28;;;2.42;91.31
77662;BME280;67292;52.136;5.424;2023-02-14T01:39:10;103678.59;;;2.38;91.33
77662;BME280;67292;52.136;5.424;2023-02-14T01:41:41;103678.50;;;2.35;91.00
77662;BME280;67292;52.136;5.424;2023-02-14T01:46:42;103681.88;;;2.33;91.04
77662;BME280;67292;52.136;5.424;2023-02-14T01:51:50;103682.53;;;2.29;91.52
77662;BME280;67292;52.136;5.424;2023-02-14T01:54:23;103678.13;;;2.28;91.67
77662;BME280;67292;52.136;5.424;2023-02-14T01:56:57;103677.25;;;2.27;92.32
77662;BME280;67292;52.136;5.424;2023-02-14T01:59:31;103679.66;;;2.23;92.51
77662;BME280;67292;52.136;5.424;2023-02-14T02:01:59;103679.72;;;2.24;92.77
77662;BME280;67292;52.136;5.424;2023-02-14T02:04:38;103678.00;;;2.25;92.30
77662;BME280;67292;52.136;5.424;2023-02-14T02:07:11;103679.72;;;2.24;92.48
77662;BME280;67292;52.136;5.424;2023-02-14T02:09:48;103675.38;;;2.25;92.26
77662;BME280;67292;52.136;5.424;2023-02-14T02:12:16;103671.78;;;2.23;91.95
77662;BME280;67292;52.136;5.424;2023-02-14T02:14:44;103677.84;;;2.22;92.35
77662;BME280;67292;52.136;5.424;2023-02-14T02:45:06;103672.03;;;2.09;92.62
77662;BME280;67292;52.136;5.424;2023-02-14T02:50:42;103665.72;;;2.06;93.54
77662;BME280;67292;52.136;5.424;2023-02-14T02:53:53;103664.91;;;2.07;93.38
77662;BME280;67292;52.136;5.424;2023-02-14T02:56:31;103661.34;;;2.05;92.99
77662;BME280;67292;52.136;5.424;2023-02-14T02:59:18;103661.34;;;2.05;92.76
77662;BME280;67292;52.136;5.424;2023-02-14T03:01:54;103658.56;;;2.02;92.64
77662;BME280;67292;52.136;5.424;2023-02-14T03:04:25;103655.69;;;1.97;92.71
77662;BME280;67292;52.136;5.424;2023-02-14T03:07:12;103655.78;;;1.99;92.84
77662;BME280;67292;52.136;5.424;2023-02-14T03:09:59;103657.59;;;2.00;93.16
77662;BME280;67292;52.136;5.424;2023-02-14T03:18:07;103653.06;;;1.97;92.87
77662;BME280;67292;52.136;5.424;2023-02-14T03:21:38;103644.31;;;1.97;93.15
77662;BME280;67292;52.136;5.424;2023-02-14T03:24:18;103641.69;;;1.97;93.69
77662;BME280;67292;52.136;5.424;2023-02-14T03:26:55;103639.88;;;1.96;93.33
77662;BME280;67292;52.136;5.424;2023-02-14T03:32:13;103640.94;;;1.99;92.83
77662;BME280;67292;52.136;5.424;2023-02-14T03:37:34;103646.84;;;1.95;93.21
77662;BME280;67292;52.136;5.424;2023-02-14T03:40:24;103641.59;;;1.95;93.50
77662;BME280;67292;52.136;5.424;2023-02-14T03:43:05;103640.66;;;1.93;93.09
77662;BME280;67292;52.136;5.424;2023-02-14T03:45:43;103643.34;;;1.95;93.14
77662;BME280;67292;52.136;5.424;2023-02-14T03:48:13;103640.72;;;1.95;93.03
77662;BME280;67292;52.136;5.424;2023-02-14T03:50:46;103644.84;;;1.90;93.56
77662;BME280;67292;52.136;5.424;2023-02-14T03:53:20;103638.78;;;1.91;93.38
77662;BME280;67292;52.136;5.424;2023-02-14T03:58:27;103639.59;;;1.90;92.97
77662;BME280;67292;52.136;5.424;2023-02-14T04:01:02;103636.81;;;1.87;93.72
77662;BME280;67292;52.136;5.424;2023-02-14T04:03:33;103637.56;;;1.84;93.52
77662;BME280;67292;52.136;5.424;2023-02-14T04:06:03;103637.66;;;1.86;93.66
77662;BME280;67292;52.136;5.424;2023-02-14T04:08:29;103642.00;;;1.85;93.98
77662;BME280;67292;52.136;5.424;2023-02-14T04:10:59;103647.22;;;1.83;93.57
77662;BME280;67292;52.136;5.424;2023-02-14T04:13:27;103645.41;;;1.82;93.94
77662;BME280;67292;52.136;5.424;2023-02-14T04:15:54;103645.25;;;1.79;93.98
77662;BME280;67292;52.136;5.424;2023-02-14T04:18:20;103639.94;;;1.78;93.84
77662;BME280;67292;52.136;5.424;2023-02-14T04:21:06;103645.25;;;1.79;93.62
77662;BME280;67292;52.136;5.424;2023-02-14T04:23:33;103651.16;;;1.75;93.65
77662;BME280;67292;52.136;5.424;2023-02-14T04:26:00;103640.56;;;1.72;93.38
77662;BME280;67292;52.136;5.424;2023-02-14T04:28:29;103641.13;;;1.67;93.67
77662;BME280;67292;52.136;5.424;2023-02-14T04:30:56;103640.25;;;1.66;93.83
77662;BME280;67292;52.136;5.424;2023-02-14T04:33:26;103654.19;;;1.65;93.87
77662;BME280;67292;52.136;5.424;2023-02-14T04:35:53;103641.06;;;1.65;94.00
77662;BME280;67292;52.136;5.424;2023-02-14T04:38:20;103650.47;;;1.60;92.70
77662;BME280;67292;52.136;5.424;2023-02-14T04:40:48;103647.84;;;1.60;93.17
77662;BME280;67292;52.136;5.424;2023-02-14T04:43:15;103653.81;;;1.58;93.37
77662;BME280;67292;52.136;5.424;2023-02-14T04:45:42;103643.09;;;1.53;94.07
77662;BME280;67292;52.136;5.424;2023-02-14T04:48:08;103637.84;;;1.53;93.59
77662;BME280;67292;52.136;5.424;2023-02-14T04:50:35;103633.38;;;1.51;94.08
77662;BME280;67292;52.136;5.424;2023-02-14T04:53:02;103635.75;;;1.46;93.77
77662;BME280;67292;52.136;5.424;2023-02-14T04:55:28;103633.06;;;1.44;93.62
77662;BME280;67292;52.136;5.424;2023-02-14T04:57:55;103635.75;;;1.46;93.71
77662;BME280;67292;52.136;5.424;2023-02-14T05:00:22;103636.66;;;1.46;93.14
77662;BME280;67292;52.136;5.424;2023-02-14T05:02:49;103638.31;;;1.44;93.48
77662;BME280;67292;52.136;5.424;2023-02-14T05:05:16;103632.09;;;1.42;93.37
77662;BME280;67292;52.136;5.424;2023-02-14T05:07:42;103633.75;;;1.40;93.97
77662;BME280;67292;52.136;5.424;2023-02-14T05:10:14;103635.41;;;1.38;92.74
77662;BME280;67292;52.136;5.424;2023-02-14T05:12:40;103629.19;;;1.36;93.08
77662;BME280;67292;52.136;5.424;2023-02-14T05:15:08;103630.81;;;1.34;92.69
77662;BME280;67292;52.136;5.424;2023-02-14T05:17:34;103629.91;;;1.34;92.93
77662;BME280;67292;52.136;5.424;2023-02-14T05:20:05;103628.03;;;1.31;92.37
77662;BME280;67292;52.136;5.424;2023-02-14T05:22:32;103626.19;;;1.29;93.24
77662;BME280;67292;52.136;5.424;2023-02-14T05:24:58;103628.81;;;1.29;93.37
77662;BME280;67292;52.136;5.424;2023-02-14T05:27:25;103626.84;;;1.25;93.46
77662;BME280;67292;52.136;5.424;2023-02-14T05:29:51;103626.69;;;1.22;93.06
77662;BME280;67292;52.136;5.424;2023-02-14T05:32:18;103634.47;;;1.20;92.98
77662;BME280;67292;52.136;5.424;2023-02-14T05:34:45;103630.00;;;1.18;93.04
77662;BME280;67292;52.136;5.424;2023-02-14T05:37:11;103629.84;;;1.15;92.52
77662;BME280;67292;52.136;5.424;2023-02-14T05:39:38;103628.88;;;1.13;92.50
77662;BME280;67292;52.136;5.424;2023-02-14T05:42:04;103617.28;;;1.07;92.61
77662;BME280;67292;52.136;5.424;2023-02-14T05:44:31;103616.41;;;1.08;92.50
77662;BME280;67292;52.136;5.424;2023-02-14T05:46:57;103620.78;;;1.08;93.24
77662;BME280;67292;52.136;5.424;2023-02-14T05:49:24;103623.34;;;1.06;92.45
77662;BME280;67292;52.136;5.424;2023-02-14T05:51:51;103626.78;;;1.05;93.02
77662;BME280;67292;52.136;5.424;2023-02-14T05:54:17;103625.78;;;1.03;93.19
77662;BME280;67292;52.136;5.424;2023-02-14T05:56:44;103624.88;;;1.03;92.65
77662;BME280;67292;52.136;5.424;2023-02-14T05:59:10;103628.25;;;1.00;92.29
77662;BME280;67292;52.136;5.424;2023-02-14T06:01:39;103634.22;;;0.98;92.87
77662;BME280;67292;52.136;5.424;2023-02-14T06:04:06;103633.34;;;0.97;92.46
77662;BME280;67292;52.136;5.424;2023-02-14T06:06:32;103623.63;;;0.95;92.53
77662;BME280;67292;52.136;5.424;2023-02-14T06:09:02;103621.72;;;0.92;93.07
77662;BME280;67292;52.136;5.424;2023-02-14T06:11:28;103621.72;;;0.92;93.02
77662;BME280;67292;52.136;5.424;2023-02-14T06:13:55;103622.56;;;0.91;92.64
77662;BME280;67292;52.136;5.424;2023-02-14T06:16:22;103620.75;;;0.90;93.15
77662;BME280;67292;52.136;5.424;2023-02-14T06:18:48;103621.56;;;0.89;92.23
77662;BME280;67292;52.136;5.424;2023-02-14T06:21:15;103631.97;;;0.88;92.84
77662;BME280;67292;52.136;5.424;2023-02-14T06:23:42;103633.69;;;0.87;92.62
77662;BME280;67292;52.136;5.424;2023-02-14T06:26:08;103641.50;;;0.86;92.33
77662;BME280;67292;52.136;5.424;2023-02-14T06:28:35;103637.97;;;0.85;92.82
77662;BME280;67292;52.136;5.424;2023-02-14T06:31:03;103634.38;;;0.83;92.65
77662;BME280;67292;52.136;5.424;2023-02-14T06:33:30;103637.81;;;0.82;93.10
77662;BME280;67292;52.136;5.424;2023-02-14T06:35:57;103639.53;;;0.82;93.37
77662;BME280;67292;52.136;5.424;2023-02-14T06:38:23;103636.00;;;0.81;92.86
77662;BME280;67292;52.136;5.424;2023-02-14T06:40:50;103635.94;;;0.80;93.43
77662;BME280;67292;52.136;5.424;2023-02-14T06:43:16;103640.19;;;0.78;92.97
77662;BME280;67292;52.136;5.424;2023-02-14T06:45:45;103641.91;;;0.77;92.88
77662;BME280;67292;52.136;5.424;2023-02-14T06:48:11;103646.25;;;0.77;93.67
77662;BME280;67292;52.136;5.424;2023-02-14T06:50:38;103645.41;;;0.78;93.17
77662;BME280;67292;52.136;5.424;2023-02-14T06:53:05;103645.41;;;0.78;93.58
77662;BME280;67292;52.136;5.424;2023-02-14T06:55:31;103635.94;;;0.80;94.01
77662;BME280;67292;52.136;5.424;2023-02-14T06:57:58;103646.41;;;0.80;94.04
77662;BME280;67292;52.136;5.424;2023-02-14T07:00:25;103638.53;;;0.80;93.87
77662;BME280;67292;52.136;5.424;2023-02-14T07:02:51;103638.63;;;0.81;94.50
77662;BME280;67292;52.136;5.424;2023-02-14T07:05:18;103638.63;;;0.81;94.16
77662;BME280;67292;52.136;5.424;2023-02-14T07:07:45;103633.47;;;0.83;93.48
77662;BME280;67292;52.136;5.424;2023-02-14T07:10:12;103635.28;;;0.84;94.16
77662;BME280;67292;52.136;5.424;2023-02-14T07:12:38;103631.84;;;0.85;93.29
77662;BME280;67292;52.136;5.424;2023-02-14T07:15:07;103640.66;;;0.87;93.49
77662;BME280;67292;52.136;5.424;2023-02-14T07:17:34;103633.75;;;0.89;93.42
77662;BME280;67292;52.136;5.424;2023-02-14T07:20:02;103635.50;;;0.88;94.31
77662;BME280;67292;52.136;5.424;2023-02-14T07:22:28;103633.84;;;0.90;93.33
77662;BME280;67292;52.136;5.424;2023-02-14T07:24:55;103640.06;;;0.92;93.86
77662;BME280;67292;52.136;5.424;2023-02-14T07:27:22;103627.78;;;0.91;94.03
77662;BME280;67292;52.136;5.424;2023-02-14T07:29:49;103626.06;;;0.92;94.21
77662;BME280;67292;52.136;5.424;2023-02-14T07:32:16;103627.25;;;0.98;93.37
77662;BME280;67292;52.136;5.424;2023-02-14T07:34:43;103641.59;;;1.05;94.03
77662;BME280;67292;52.136;5.424;2023-02-14T07:37:10;103637.38;;;1.08;94.48
77662;BME280;67292;52.136;5.424;2023-02-14T07:39:36;103639.28;;;1.11;94.74
77662;BME280;67292;52.136;5.424;2023-02-14T07:42:03;103642.28;;;1.19;94.66
77662;BME280;67292;52.136;5.424;2023-02-14T07:44:29;103644.16;;;1.21;95.48
77662;BME280;67292;52.136;5.424;2023-02-14T07:46:56;103646.09;;;1.25;94.71
77662;BME280;67292;52.136;5.424;2023-02-14T07:49:23;103647.16;;;1.29;95.02
77662;BME280;67292;52.136;5.424;2023-02-14T07:51:49;103643.84;;;1.33;94.09
77662;BME280;67292;52.136;5.424;2023-02-14T07:54:16;103651.06;;;1.37;94.31
77662;BME280;67292;52.136;5.424;2023-02-14T07:56:45;103642.38;;;1.38;94.84
77662;BME280;67292;52.136;5.424;2023-02-14T07:59:11;103645.34;;;1.45;95.15
77662;BME280;67292;52.136;5.424;2023-02-14T08:01:38;103642.00;;;1.48;94.60
77662;BME280;67292;52.136;5.424;2023-02-14T08:04:13;103633.31;;;1.49;94.75
77662;BME280;67292;52.136;5.424;2023-02-14T08:06:41;103636.34;;;1.58;94.44
77662;BME280;67292;52.136;5.424;2023-02-14T08:09:09;103630.50;;;1.64;94.63
77662;BME280;67292;52.136;5.424;2023-02-14T08:11:36;103636.78;;;1.67;94.88
77662;BME280;67292;52.136;5.424;2023-02-14T08:14:21;103634.44;;;1.73;94.85
77662;BME280;67292;52.136;5.424;2023-02-14T08:16:48;103633.78;;;1.77;94.47
77662;BME280;67292;52.136;5.424;2023-02-14T08:19:15;103638.56;;;1.86;94.76
77662;BME280;67292;52.136;5.424;2023-02-14T08:21:41;103638.78;;;1.91;94.17
77662;BME280;67292;52.136;5.424;2023-02-14T08:24:08;103634.50;;;1.93;94.10
77662;BME280;67292;52.136;5.424;2023-02-14T08:26:35;103642.66;;;1.99;94.21
77662;BME280;67292;52.136;5.424;2023-02-14T08:29:01;103633.28;;;2.04;94.37
77662;BME280;67292;52.136;5.424;2023-02-14T08:31:30;103637.00;;;2.09;94.20
77662;BME280;67292;52.136;5.424;2023-02-14T08:34:05;103634.59;;;2.13;94.43
77662;BME280;67292;52.136;5.424;2023-02-14T08:36:33;103637.56;;;2.21;94.41
77662;BME280;67292;52.136;5.424;2023-02-14T08:39:02;103634.38;;;2.28;94.18
77662;BME280;67292;52.136;5.424;2023-02-14T08:41:29;103638.13;;;2.33;94.04
77662;BME280;67292;52.136;5.424;2023-02-14T08:43:56;103639.28;;;2.40;94.58
77662;BME280;67292;52.136;5.424;2023-02-14T08:46:22;103641.38;;;2.47;94.23
77662;BME280;67292;52.136;5.424;2023-02-14T08:48:49;103642.66;;;2.56;94.06
77662;BME280;67292;52.136;5.424;2023-02-14T08:51:17;103645.84;;;2.69;94.00
77662;BME280;67292;52.136;5.424;2023-02-14T08:53:44;103634.88;;;2.79;94.38
77662;BME280;67292;52.136;5.424;2023-02-14T08:56:15;103637.09;;;2.89;94.66
77662;BME280;67292;52.136;5.424;2023-02-14T08:58:43;103635.72;;;2.99;95.07
77662;BME280;67292;52.136;5.424;2023-02-14T09:01:12;103629.06;;;3.07;94.34
77662;BME280;67292;52.136;5.424;2023-02-14T09:03:39;103628.59;;;3.17;94.35
77662;BME280;67292;52.136;5.424;2023-02-14T09:06:08;103628.16;;;3.27;95.25
77662;BME280;67292;52.136;5.424;2023-02-14T09:08:36;103630.38;;;3.39;93.93
77662;BME280;67292;52.136;5.424;2023-02-14T09:11:12;103624.66;;;3.49;95.75
77662;BME280;67292;52.136;5.424;2023-02-14T09:13:41;103622.44;;;3.59;95.38
77662;BME280;67292;52.136;5.424;2023-02-14T09:16:10;103625.44;;;3.68;94.07
77662;BME280;67292;52.136;5.424;2023-02-14T09:18:37;103625.75;;;3.76;95.04
77662;BME280;67292;52.136;5.424;2023-02-14T09:21:09;103626.25;;;3.90;95.74
77662;BME280;67292;52.136;5.424;2023-02-14T09:23:36;103615.56;;;4.08;94.94
77662;BME280;67292;52.136;5.424;2023-02-14T09:26:07;103620.22;;;4.38;93.86
77662;BME280;67292;52.136;5.424;2023-02-14T09:28:35;103613.75;;;4.80;93.32
77662;BME280;67292;52.136;5.424;2023-02-14T09:33:42;103613.28;;;5.72;90.54
77662;BME280;67292;52.136;5.424;2023-02-14T09:36:09;103606.84;;;6.20;89.97
77662;BME280;67292;52.136;5.424;2023-02-14T09:38:41;103600.19;;;6.66;88.57
77662;BME280;67292;52.136;5.424;2023-02-14T09:41:43;103593.69;;;7.22;88.67
77662;BME280;67292;52.136;5.424;2023-02-14T09:44:31;103599.19;;;7.67;87.37
77662;BME280;67292;52.136;5.424;2023-02-14T09:47:10;103600.03;;;8.07;87.30
77662;BME280;67292;52.136;5.424;2023-02-14T09:49:42;103594.63;;;8.45;86.04
77662;BME280;67292;52.136;5.424;2023-02-14T09:52:12;103595.22;;;8.75;84.85
77662;BME280;67292;52.136;5.424;2023-02-14T09:54:47;103583.34;;;9.04;86.75
77662;BME280;67292;52.136;5.424;2023-02-14T09:57:35;103579.44;;;9.37;85.09
77662;BME280;67292;52.136;5.424;2023-02-14T10:05:29;103575.06;;;10.04;83.97
77662;BME280;67292;52.136;5.424;2023-02-14T10:11:07;103569.34;;;10.46;82.65
77662;BME280;67292;52.136;5.424;2023-02-14T10:13:43;103574.09;;;10.76;82.68
77662;BME280;67292;52.136;5.424;2023-02-14T10:19:33;103568.16;;;11.09;81.36
77662;BME280;67292;52.136;5.424;2023-02-14T10:22:11;103572.72;;;11.26;81.79
77662;BME280;67292;52.136;5.424;2023-02-14T10:24:49;103579.91;;;11.37;81.45
77662;BME280;67292;52.136;5.424;2023-02-14T10:27:29;103569.38;;;11.55;80.59
77662;BME280;67292;52.136;5.424;2023-02-14T10:29:58;103563.22;;;11.69;80.13
77662;BME280;67292;52.136;5.424;2023-02-14T10:32:42;103572.19;;;11.79;80.36
77662;BME280;67292;52.136;5.424;2023-02-14T10:35:34;103557.19;;;11.96;80.36
77662;BME280;67292;52.136;5.424;2023-02-14T10:38:19;103567.00;;;12.00;79.55
77662;BME280;67292;52.136;5.424;2023-02-14T10:41:29;103565.19;;;11.99;79.26
77662;BME280;67292;52.136;5.424;2023-02-14T10:44:34;103557.22;;;12.13;78.69
77662;BME280;67292;52.136;5.424;2023-02-14T10:47:10;103552.84;;;12.32;78.84
77662;BME280;67292;52.136;5.424;2023-02-14T10:49:57;103561.75;;;12.46;79.37
77662;BME280;67292;52.136;5.424;2023-02-14T10:58:18;103555.56;;;13.09;77.73
77662;BME280;67292;52.136;5.424;2023-02-14T11:01:00;103545.78;;;13.31;79.07
77662;BME280;67292;52.136;5.424;2023-02-14T11:03:29;103548.47;;;13.39;75.86
77662;BME280;67292;52.136;5.424;2023-02-14T11:05:55;103548.44;;;13.46;75.82
77662;BME280;67292;52.136;5.424;2023-02-14T11:08:36;103535.88;;;13.65;76.31
77662;BME280;67292;52.136;5.424;2023-02-14T11:11:26;103537.63;;;13.77;75.26
77662;BME280;67292;52.136;5.424;2023-02-14T11:13:54;103529.56;;;13.91;75.41
77662;BME280;67292;52.136;5.424;2023-02-14T11:16:33;103532.19;;;14.01;74.51
77662;BME280;67292;52.136;5.424;2023-02-14T11:19:30;103527.72;;;14.02;74.69
77662;BME280;67292;52.136;5.424;2023-02-14T11:22:02;103516.09;;;14.03;74.09
77662;BME280;67292;52.136;5.424;2023-02-14T11:24:37;103518.75;;;14.09;72.82
77662;BME280;67292;52.136;5.424;2023-02-14T11:27:16;103511.53;;;14.18;75.00
77662;BME280;67292;52.136;5.424;2023-02-14T11:29:46;103511.44;;;14.40;74.94
77662;BME280;67292;52.136;5.424;2023-02-14T11:32:29;103512.31;;;14.43;73.77
77662;BME280;67292;52.136;5.424;2023-02-14T11:35:18;103512.22;;;14.54;72.75
77662;BME280;67292;52.136;5.424;2023-02-14T11:37:51;103513.19;;;14.47;72.06
77662;BME280;67292;52.136;5.424;2023-02-14T11:40:35;103502.50;;;14.41;73.40
77662;BME280;67292;52.136;5.424;2023-02-14T11:45:42;103499.91;;;14.25;71.64
77662;BME280;67292;52.136;5.424;2023-02-14T11:48:24;103491.00;;;14.17;72.71
77662;BME280;67292;52.136;5.424;2023-02-14T11:51:10;103485.78;;;13.99;71.83
77662;BME280;67292;52.136;5.424;2023-02-14T11:53:50;103480.47;;;13.93;72.45
77662;BME280;67292;52.136;5.424;2023-02-14T11:56:20;103487.66;;;13.79;72.99
77662;BME280;67292;52.136;5.424;2023-02-14T11:59:01;103482.38;;;13.65;72.72
77662;BME280;67292;52.136;5.424;2023-02-14T12:01:32;103472.63;;;13.50;73.52
77662;BME280;67292;52.136;5.424;2023-02-14T12:04:04;103474.47;;;13.33;72.68
77662;BME280;67292;52.136;5.424;2023-02-14T12:06:35;103475.38;;;13.26;74.04
77662;BME280;67292;52.136;5.424;2023-02-14T12:09:25;103478.94;;;13.11;74.66
77662;BME280;67292;52.136;5.424;2023-02-14T12:12:03;103465.59;;;13.05;72.94
77662;BME280;67292;52.136;5.424;2023-02-14T12:14:40;103468.25;;;13.01;73.86
77662;BME280;67292;52.136;5.424;2023-02-14T12:22:42;103465.63;;;12.61;74.73
77662;BME280;67292;52.136;5.424;2023-02-14T12:25:21;103455.84;;;12.50;73.01
77662;BME280;67292;52.136;5.424;2023-02-14T12:27:59;103454.06;;;12.53;75.42
77662;BME280;67292;52.136;5.424;2023-02-14T12:30:33;103452.28;;;12.51;76.62
77662;BME280;67292;52.136;5.424;2023-02-14T12:33:01;103443.38;;;12.47;76.40
77662;BME280;67292;52.136;5.424;2023-02-14T12:41:39;103438.03;;;12.32;73.00
77662;BME280;67292;52.136;5.424;2023-02-14T12:47:11;103433.56;;;12.26;74.65
77662;BME280;67292;52.136;5.424;2023-02-14T12:50:02;103432.66;;;12.24;76.79
77662;BME280;67292;52.136;5.424;2023-02-14T12:55:52;103422.88;;;12.14;76.37
77662;BME280;67292;52.136;5.424;2023-02-14T13:03:53;103415.75;;;12.13;75.29
77662;BME280;67292;52.136;5.424;2023-02-14T13:06:47;103408.66;;;12.07;75.25
77662;BME280;67292;52.136;5.424;2023-02-14T13:18:46;103389.94;;;12.04;74.60
77662;BME280;67292;52.136;5.424;2023-02-14T13:21:22;103384.63;;;12.06;76.51
77662;BME280;67292;52.136;5.424;2023-02-14T13:24:23;103377.50;;;12.05;76.12
77662;BME280;67292;52.136;5.424;2023-02-14T13:26:55;103365.94;;;12.03;74.73
77662;BME280;67292;52.136;5.424;2023-02-14T13:29:30;103373.03;;;12.02;74.29
77662;BME280;67292;52.136;5.424;2023-02-14T13:32:02;103367.72;;;11.98;74.38
77662;BME280;67292;52.136;5.424;2023-02-14T13:34:38;103366.84;;;12.00;76.55
77662;BME280;67292;52.136;5.424;2023-02-14T13:37:10;103364.16;;;11.97;75.44
77662;BME280;67292;52.136;5.424;2023-02-14T13:48:05;103363.25;;;11.88;75.57
77662;BME280;67292;52.136;5.424;2023-02-14T13:50:48;103355.25;;;11.89;75.56
77662;BME280;67292;52.136;5.424;2023-02-14T13:56:28;103347.25;;;11.83;73.63
77662;BME280;67292;52.136;5.424;2023-02-14T13:58:55;103352.59;;;11.88;75.24
77662;BME280;67292;52.136;5.424;2023-02-14T14:01:30;103349.03;;;11.86;75.21
77662;BME280;67292;52.136;5.424;2023-02-14T14:07:21;103341.00;;;11.84;75.31
77662;BME280;67292;52.136;5.424;2023-02-14T14:22:56;103329.44;;;11.79;74.67
77662;BME280;67292;52.136;5.424;2023-02-14T14:25:37;103326.75;;;11.79;75.39
77662;BME280;67292;52.136;5.424;2023-02-14T14:28:24;103328.56;;;11.82;76.87
77662;BME280;67292;52.136;5.424;2023-02-14T14:30:52;103324.09;;;11.79;75.80
77662;BME280;67292;52.136;5.424;2023-02-14T14:33:31;103324.13;;;11.78;74.53
77662;BME280;67292;52.136;5.424;2023-02-14T14:36:03;103331.22;;;11.76;74.91
77662;BME280;67292;52.136;5.424;2023-02-14T14:38:34;103328.56;;;11.79;75.69
77662;BME280;67292;52.136;5.424;2023-02-14T14:41:11;103325.03;;;11.87;75.52
77662;BME280;67292;52.136;5.424;2023-02-14T14:43:38;103323.25;;;11.98;73.91
77662;BME280;67292;52.136;5.424;2023-02-14T14:46:13;103323.22;;;12.04;75.00
77662;BME280;67292;52.136;5.424;2023-02-14T14:48:50;103322.34;;;12.05;75.92
77662;BME280;67292;52.136;5.424;2023-02-14T14:51:30;103320.56;;;12.03;74.17
77662;BME280;67292;52.136;5.424;2023-02-14T14:54:04;103319.66;;;12.04;75.59
77662;BME280;67292;52.136;5.424;2023-02-14T14:56:57;103319.66;;;12.01;76.73
77662;BME280;67292;52.136;5.424;2023-02-14T14:59:29;103313.44;;;11.93;74.50
77662;BME280;67292;52.136;5.424;2023-02-14T15:01:56;103317.91;;;11.88;74.86
77662;BME280;67292;52.136;5.424;2023-02-14T15:04:32;103320.56;;;11.85;76.11
77662;BME280;67292;52.136;5.424;2023-02-14T15:07:33;103317.88;;;11.82;74.18
77662;BME280;67292;52.136;5.424;2023-02-14T15:10:00;103311.69;;;11.78;74.66
77662;BME280;67292;52.136;5.424;2023-02-14T15:12:28;103312.53;;;11.74;74.96
77662;BME280;67292;52.136;5.424;2023-02-14T15:15:17;103316.94;;;11.72;74.64
77662;BME280;67292;52.136;5.424;2023-02-14T15:17:45;103324.94;;;11.72;76.10
77662;BME280;67292;52.136;5.424;2023-02-14T15:20:17;103313.41;;;11.67;75.12
77662;BME280;67292;52.136;5.424;2023-02-14T15:22:49;103317.84;;;11.65;75.79
77662;BME280;67292;52.136;5.424;2023-02-14T15:25:42;103320.50;;;11.60;75.02
77662;BME280;67292;52.136;5.424;2023-02-14T15:28:24;103317.81;;;11.57;73.90
77662;BME280;67292;52.136;5.424;2023-02-14T15:30:56;103319.59;;;11.54;74.49
77662;BME280;67292;52.136;5.424;2023-02-14T15:33:25;103311.59;;;11.46;74.58
77662;BME280;67292;52.136;5.424;2023-02-14T15:35:52;103319.59;;;11.45;75.54